createdAt,value
2017-08-09T00:00:06.142Z,19.6
2017-08-09T00:00:34.416Z,19.63
2017-08-09T00:01:02.589Z,19.65
2017-08-09T00:01:30.866Z,19.46
2017-08-09T00:01:59.028Z,19.56
2017-08-09T00:02:27.315Z,19.55
2017-08-09T00:02:55.587Z,19.4
2017-08-09T00:03:23.938Z,19.52
2017-08-09T00:03:52.191Z,19.46
2017-08-09T00:04:20.383Z,19.55
2017-08-09T00:04:48.691Z,19.45
2017-08-09T00:05:17.014Z,19.53
2017-08-09T00:05:45.289Z,19.46
2017-08-09T00:06:13.501Z,19.52
2017-08-09T00:06:41.601Z,19.56
2017-08-09T00:07:09.770Z,19.5
2017-08-09T00:07:37.879Z,19.55
2017-08-09T00:08:06.172Z,19.47
2017-08-09T00:08:34.252Z,19.57
2017-08-09T00:09:02.449Z,19.57
2017-08-09T00:09:30.702Z,19.5
2017-08-09T00:09:58.864Z,19.49
2017-08-09T00:10:27.185Z,19.5
2017-08-09T00:10:55.476Z,19.5
2017-08-09T00:11:23.685Z,19.49
2017-08-09T00:11:51.843Z,19.52
2017-08-09T00:12:20.331Z,19.45
2017-08-09T00:12:48.593Z,19.5
2017-08-09T00:13:16.855Z,19.55
2017-08-09T00:13:44.947Z,19.64
2017-08-09T00:14:13.204Z,19.57
2017-08-09T00:14:41.304Z,19.55
2017-08-09T00:15:09.441Z,19.57
2017-08-09T00:15:37.935Z,19.65
2017-08-09T00:16:06.200Z,19.57
2017-08-09T00:16:34.484Z,19.53
2017-08-09T00:17:02.693Z,19.65
2017-08-09T00:17:30.942Z,19.46
2017-08-09T00:17:58.995Z,19.6
2017-08-09T00:18:27.125Z,19.52
2017-08-09T00:18:55.420Z,19.57
2017-08-09T00:19:23.521Z,19.53
2017-08-09T00:19:51.725Z,19.56
2017-08-09T00:20:19.939Z,19.55
2017-08-09T00:20:48.126Z,19.55
2017-08-09T00:21:16.425Z,19.52
2017-08-09T00:21:44.707Z,19.43
2017-08-09T00:22:12.951Z,19.46
2017-08-09T00:22:41.203Z,19.46
2017-08-09T00:23:09.465Z,19.32
2017-08-09T00:23:37.749Z,19.34
2017-08-09T00:24:05.850Z,19.4
2017-08-09T00:24:34.144Z,19.32
2017-08-09T00:25:02.382Z,19.19
2017-08-09T00:25:30.768Z,19.24
2017-08-09T00:25:58.851Z,19.2
2017-08-09T00:26:27.132Z,19.16
2017-08-09T00:26:55.399Z,19.12
2017-08-09T00:27:23.699Z,19.13
2017-08-09T00:27:51.955Z,19.1
2017-08-09T00:28:20.180Z,19.06
2017-08-09T00:28:48.300Z,19.07
2017-08-09T00:29:16.479Z,19.12
2017-08-09T00:29:44.530Z,19.12
2017-08-09T00:30:12.785Z,19.06
2017-08-09T00:30:41.292Z,19.06
2017-08-09T00:31:09.428Z,19.07
2017-08-09T00:31:37.603Z,19.17
2017-08-09T00:32:05.809Z,19.13
2017-08-09T00:32:34.012Z,19.1
2017-08-09T00:33:02.337Z,19.12
2017-08-09T00:33:30.540Z,19.17
2017-08-09T00:33:58.610Z,19.15
2017-08-09T00:34:26.819Z,19.16
2017-08-09T00:34:55.109Z,19.28
2017-08-09T00:35:23.295Z,19.23
2017-08-09T00:35:51.566Z,19.35
2017-08-09T00:36:19.856Z,19.42
2017-08-09T00:36:47.939Z,19.43
2017-08-09T00:37:16.026Z,19.47
2017-08-09T00:37:44.067Z,19.5
2017-08-09T00:38:12.398Z,19.52
2017-08-09T00:38:40.664Z,19.56
2017-08-09T00:39:08.836Z,19.52
2017-08-09T00:39:36.941Z,19.49
2017-08-09T00:40:05.054Z,19.55
2017-08-09T00:40:33.302Z,19.56
2017-08-09T00:41:01.453Z,19.64
2017-08-09T00:41:29.737Z,19.61
2017-08-09T00:41:58.058Z,19.55
2017-08-09T00:42:26.311Z,19.63
2017-08-09T00:42:54.403Z,19.63
2017-08-09T00:43:22.488Z,19.57
2017-08-09T00:43:50.585Z,19.57
2017-08-09T00:44:18.799Z,19.55
2017-08-09T00:44:46.954Z,19.6
2017-08-09T00:45:15.338Z,19.53
2017-08-09T00:45:43.808Z,19.56
2017-08-09T00:46:11.946Z,19.52
2017-08-09T00:46:40.207Z,19.56
2017-08-09T00:47:08.353Z,19.52
2017-08-09T00:47:36.690Z,19.57
2017-08-09T00:48:04.906Z,19.53
2017-08-09T00:48:33.227Z,19.6
2017-08-09T00:49:01.418Z,19.49
2017-08-09T00:49:29.753Z,19.53
2017-08-09T00:49:58.092Z,19.61
2017-08-09T00:50:26.355Z,19.56
2017-08-09T00:50:54.673Z,19.6
2017-08-09T00:51:22.902Z,19.5
2017-08-09T00:51:51.104Z,19.56
2017-08-09T00:52:19.473Z,19.49
2017-08-09T00:52:47.695Z,19.57
2017-08-09T00:53:16.061Z,19.52
2017-08-09T00:53:44.446Z,19.49
2017-08-09T00:54:12.830Z,19.4
2017-08-09T00:54:41.119Z,19.34
2017-08-09T00:55:09.253Z,19.35
2017-08-09T00:55:37.606Z,19.34
2017-08-09T00:56:06.162Z,19.24
2017-08-09T00:56:34.479Z,19.28
2017-08-09T00:57:02.749Z,19.23
2017-08-09T00:57:31.023Z,19.13
2017-08-09T00:57:59.020Z,19.13
2017-08-09T00:58:27.185Z,19.09
2017-08-09T00:58:55.406Z,19.02
2017-08-09T00:59:23.520Z,19.02
2017-08-09T00:59:51.781Z,19
2017-08-09T01:00:19.976Z,18.99
2017-08-09T01:00:48.317Z,18.96
2017-08-09T01:01:16.530Z,18.97
2017-08-09T01:01:44.813Z,18.97
2017-08-09T01:02:13.036Z,19.05
2017-08-09T01:02:41.226Z,18.99
2017-08-09T01:03:09.317Z,19.07
2017-08-09T01:03:37.585Z,19.09
2017-08-09T01:04:05.833Z,19.07
2017-08-09T01:04:33.899Z,19.09
2017-08-09T01:05:02.124Z,19.05
2017-08-09T01:05:30.087Z,19.02
2017-08-09T01:05:58.487Z,19.05
2017-08-09T01:06:27.037Z,19.07
2017-08-09T01:06:55.300Z,18.99
2017-08-09T01:07:23.407Z,18.96
2017-08-09T01:07:51.746Z,18.97
2017-08-09T01:08:20.006Z,19.05
2017-08-09T01:08:48.156Z,18.94
2017-08-09T01:09:16.510Z,18.97
2017-08-09T01:09:44.637Z,18.89
2017-08-09T01:10:12.922Z,18.94
2017-08-09T01:10:41.181Z,18.87
2017-08-09T01:11:09.439Z,18.9
2017-08-09T01:11:37.754Z,18.93
2017-08-09T01:12:06.031Z,18.9
2017-08-09T01:12:34.433Z,18.82
2017-08-09T01:13:02.785Z,18.86
2017-08-09T01:13:30.999Z,18.86
2017-08-09T01:13:59.395Z,18.9
2017-08-09T01:14:27.652Z,18.79
2017-08-09T01:14:55.908Z,18.78
2017-08-09T01:15:24.220Z,18.74
2017-08-09T01:15:52.440Z,18.74
2017-08-09T01:16:21.003Z,18.72
2017-08-09T01:16:49.175Z,18.68
2017-08-09T01:17:17.350Z,18.61
2017-08-09T01:17:45.697Z,18.59
2017-08-09T01:18:13.985Z,18.6
2017-08-09T01:18:42.216Z,18.63
2017-08-09T01:19:10.497Z,18.5
2017-08-09T01:19:38.786Z,18.51
2017-08-09T01:20:06.986Z,18.5
2017-08-09T01:20:35.267Z,18.47
2017-08-09T01:21:03.573Z,18.49
2017-08-09T01:21:31.954Z,18.34
2017-08-09T01:22:00.053Z,18.42
2017-08-09T01:22:28.318Z,18.38
2017-08-09T01:22:56.610Z,18.36
2017-08-09T01:23:24.706Z,18.56
2017-08-09T01:23:52.882Z,18.45
2017-08-09T01:24:21.196Z,18.5
2017-08-09T01:24:49.418Z,18.53
2017-08-09T01:25:17.563Z,18.61
2017-08-09T01:25:45.552Z,18.61
2017-08-09T01:26:13.696Z,18.65
2017-08-09T01:26:41.953Z,18.66
2017-08-09T01:27:10.174Z,18.6
2017-08-09T01:27:38.443Z,18.6
2017-08-09T01:28:06.796Z,18.6
2017-08-09T01:28:35.406Z,18.69
2017-08-09T01:29:03.510Z,18.61
2017-08-09T01:29:31.460Z,18.68
2017-08-09T01:29:59.675Z,18.63
2017-08-09T01:30:27.915Z,18.57
2017-08-09T01:30:56.232Z,18.66
2017-08-09T01:31:24.615Z,18.57
2017-08-09T01:31:52.856Z,18.56
2017-08-09T01:32:21.150Z,18.6
2017-08-09T01:32:49.473Z,18.5
2017-08-09T01:33:17.774Z,18.5
2017-08-09T01:33:46.078Z,18.47
2017-08-09T01:34:14.206Z,18.42
2017-08-09T01:34:42.495Z,18.41
2017-08-09T01:35:10.941Z,18.36
2017-08-09T01:35:39.137Z,18.27
2017-08-09T01:36:07.335Z,18.29
2017-08-09T01:36:35.686Z,18.31
2017-08-09T01:37:03.811Z,18.29
2017-08-09T01:37:31.887Z,18.31
2017-08-09T01:38:00.160Z,18.31
2017-08-09T01:38:28.255Z,18.31
2017-08-09T01:38:56.538Z,18.27
2017-08-09T01:39:24.695Z,18.29
2017-08-09T01:39:52.874Z,18.24
2017-08-09T01:40:21.076Z,18.26
2017-08-09T01:40:49.371Z,18.29
2017-08-09T01:41:17.655Z,18.16
2017-08-09T01:41:45.902Z,18.13
2017-08-09T01:42:14.231Z,18.11
2017-08-09T01:42:42.419Z,18.13
2017-08-09T01:43:10.686Z,18.17
2017-08-09T01:43:38.929Z,18.16
2017-08-09T01:44:07.231Z,18.1
2017-08-09T01:44:35.494Z,18.08
2017-08-09T01:45:03.582Z,18.11
2017-08-09T01:45:32.233Z,18.02
2017-08-09T01:46:00.348Z,18.1
2017-08-09T01:46:28.329Z,18.08
2017-08-09T01:46:56.647Z,18.05
2017-08-09T01:47:24.773Z,18.01
2017-08-09T01:47:53.076Z,18.03
2017-08-09T01:48:21.283Z,18.03
2017-08-09T01:48:49.492Z,17.95
2017-08-09T01:49:17.794Z,17.98
2017-08-09T01:49:45.921Z,17.96
2017-08-09T01:50:14.058Z,18.05
2017-08-09T01:50:42.262Z,17.98
2017-08-09T01:51:10.443Z,17.98
2017-08-09T01:51:38.614Z,17.94
2017-08-09T01:52:06.882Z,17.94
2017-08-09T01:52:35.074Z,17.94
2017-08-09T01:53:03.194Z,17.96
2017-08-09T01:53:31.513Z,17.99
2017-08-09T01:53:59.770Z,18.01
2017-08-09T01:54:27.905Z,17.96
2017-08-09T01:54:56.106Z,17.92
2017-08-09T01:55:24.382Z,17.87
2017-08-09T01:55:52.601Z,17.84
2017-08-09T01:56:20.764Z,17.77
2017-08-09T01:56:49.019Z,17.9
2017-08-09T01:57:17.326Z,17.88
2017-08-09T01:57:45.448Z,17.9
2017-08-09T01:58:13.662Z,17.9
2017-08-09T01:58:41.914Z,17.88
2017-08-09T01:59:09.991Z,17.83
2017-08-09T01:59:38.150Z,17.79
2017-08-09T02:00:06.241Z,17.8
2017-08-09T02:00:34.354Z,17.86
2017-08-09T02:01:02.523Z,17.87
2017-08-09T02:01:30.975Z,17.81
2017-08-09T02:01:59.391Z,17.84
2017-08-09T02:02:27.600Z,17.76
2017-08-09T02:02:55.847Z,17.74
2017-08-09T02:03:24.147Z,17.68
2017-08-09T02:03:52.322Z,17.74
2017-08-09T02:04:20.681Z,17.69
2017-08-09T02:04:48.981Z,17.76
2017-08-09T02:05:17.030Z,17.77
2017-08-09T02:05:45.244Z,17.69
2017-08-09T02:06:13.448Z,17.69
2017-08-09T02:06:41.756Z,17.84
2017-08-09T02:07:10.170Z,17.86
2017-08-09T02:07:38.463Z,17.88
2017-08-09T02:08:06.607Z,17.87
2017-08-09T02:08:34.841Z,17.88
2017-08-09T02:09:03.046Z,17.87
2017-08-09T02:09:31.306Z,17.79
2017-08-09T02:09:59.417Z,17.83
2017-08-09T02:10:27.610Z,17.9
2017-08-09T02:10:55.877Z,17.94
2017-08-09T02:11:24.045Z,17.99
2017-08-09T02:11:52.269Z,18.03
2017-08-09T02:12:20.643Z,17.99
2017-08-09T02:12:48.818Z,18.1
2017-08-09T02:13:17.009Z,18.1
2017-08-09T02:13:45.181Z,18.11
2017-08-09T02:14:13.386Z,18.1
2017-08-09T02:14:41.562Z,18.03
2017-08-09T02:15:09.837Z,18.03
2017-08-09T02:15:38.128Z,18.03
2017-08-09T02:16:06.424Z,17.94
2017-08-09T02:16:34.710Z,17.92
2017-08-09T02:17:02.813Z,17.87
2017-08-09T02:17:31.173Z,17.88
2017-08-09T02:17:59.405Z,17.92
2017-08-09T02:18:27.539Z,17.86
2017-08-09T02:18:55.823Z,17.87
2017-08-09T02:19:24.107Z,17.84
2017-08-09T02:19:52.155Z,17.81
2017-08-09T02:20:20.365Z,17.81
2017-08-09T02:20:48.624Z,17.87
2017-08-09T02:21:16.872Z,17.88
2017-08-09T02:21:45.096Z,17.87
2017-08-09T02:22:13.385Z,17.87
2017-08-09T02:22:41.814Z,17.79
2017-08-09T02:23:09.972Z,17.76
2017-08-09T02:23:38.131Z,17.66
2017-08-09T02:24:06.364Z,17.63
2017-08-09T02:24:34.579Z,17.74
2017-08-09T02:25:02.721Z,17.68
2017-08-09T02:25:30.908Z,17.63
2017-08-09T02:25:59.240Z,17.62
2017-08-09T02:26:27.361Z,17.52
2017-08-09T02:26:55.520Z,17.52
2017-08-09T02:27:23.919Z,17.54
2017-08-09T02:27:52.042Z,17.49
2017-08-09T02:28:20.312Z,17.46
2017-08-09T02:28:48.646Z,17.38
2017-08-09T02:29:16.932Z,17.45
2017-08-09T02:29:45.000Z,17.47
2017-08-09T02:30:13.097Z,17.32
2017-08-09T02:30:41.284Z,17.39
2017-08-09T02:31:09.459Z,17.31
2017-08-09T02:31:37.723Z,17.32
2017-08-09T02:32:05.897Z,17.38
2017-08-09T02:32:34.390Z,17.39
2017-08-09T02:33:02.525Z,17.31
2017-08-09T02:33:30.739Z,17.36
2017-08-09T02:33:58.918Z,17.31
2017-08-09T02:34:27.061Z,17.25
2017-08-09T02:34:55.233Z,17.28
2017-08-09T02:35:23.529Z,17.22
2017-08-09T02:35:51.711Z,17.25
2017-08-09T02:36:19.860Z,17.3
2017-08-09T02:36:48.046Z,17.18
2017-08-09T02:37:16.304Z,17.12
2017-08-09T02:37:44.682Z,17.07
2017-08-09T02:38:12.951Z,17.09
2017-08-09T02:38:41.125Z,17.12
2017-08-09T02:39:09.270Z,17.03
2017-08-09T02:39:37.477Z,16.94
2017-08-09T02:40:05.711Z,16.92
2017-08-09T02:40:33.872Z,16.91
2017-08-09T02:41:02.125Z,16.92
2017-08-09T02:41:30.354Z,17.05
2017-08-09T02:41:58.603Z,16.92
2017-08-09T02:42:26.675Z,17.03
2017-08-09T02:42:55.128Z,17
2017-08-09T02:43:25.323Z,17.06
2017-08-09T02:43:53.919Z,17.06
2017-08-09T02:44:22.181Z,17.1
2017-08-09T02:44:50.501Z,17.15
2017-08-09T02:45:18.838Z,17.15
2017-08-09T02:45:47.036Z,17.15
2017-08-09T02:46:15.340Z,17.27
2017-08-09T02:46:43.526Z,17.39
2017-08-09T02:47:11.803Z,17.43
2017-08-09T02:47:40.112Z,17.47
2017-08-09T02:48:08.285Z,17.43
2017-08-09T02:48:36.569Z,17.43
2017-08-09T02:49:04.709Z,17.38
2017-08-09T02:49:32.855Z,17.43
2017-08-09T02:50:00.944Z,17.36
2017-08-09T02:50:29.130Z,17.39
2017-08-09T02:50:57.403Z,17.35
2017-08-09T02:51:25.705Z,17.31
2017-08-09T02:51:54.010Z,17.32
2017-08-09T02:52:22.225Z,17.39
2017-08-09T02:52:50.524Z,17.31
2017-08-09T02:53:18.802Z,17.4
2017-08-09T02:53:47.060Z,17.31
2017-08-09T02:54:15.241Z,17.39
2017-08-09T02:54:43.530Z,17.42
2017-08-09T02:55:11.808Z,17.4
2017-08-09T02:55:40.021Z,17.32
2017-08-09T02:56:08.172Z,17.35
2017-08-09T02:56:36.418Z,17.32
2017-08-09T02:57:04.610Z,17.31
2017-08-09T02:57:32.887Z,17.35
2017-08-09T02:58:01.214Z,17.32
2017-08-09T02:58:29.354Z,17.25
2017-08-09T02:58:57.492Z,17.24
2017-08-09T02:59:25.757Z,17.12
2017-08-09T02:59:53.965Z,17.12
2017-08-09T03:00:22.257Z,17.15
2017-08-09T03:00:50.459Z,17.1
2017-08-09T03:01:18.640Z,17.05
2017-08-09T03:01:46.839Z,16.97
2017-08-09T03:02:15.021Z,16.95
2017-08-09T03:02:43.261Z,16.97
2017-08-09T03:03:11.563Z,16.87
2017-08-09T03:03:39.833Z,16.87
2017-08-09T03:04:08.125Z,16.8
2017-08-09T03:04:36.404Z,16.9
2017-08-09T03:05:04.660Z,16.87
2017-08-09T03:05:32.660Z,16.74
2017-08-09T03:06:00.793Z,16.72
2017-08-09T03:06:28.887Z,16.73
2017-08-09T03:06:57.113Z,16.7
2017-08-09T03:07:25.293Z,16.66
2017-08-09T03:07:53.490Z,16.62
2017-08-09T03:08:21.811Z,16.59
2017-08-09T03:08:49.990Z,16.57
2017-08-09T03:09:18.307Z,16.58
2017-08-09T03:09:46.467Z,16.67
2017-08-09T03:10:14.632Z,16.66
2017-08-09T03:10:42.857Z,16.55
2017-08-09T03:11:11.166Z,16.59
2017-08-09T03:11:39.341Z,16.51
2017-08-09T03:12:07.498Z,16.54
2017-08-09T03:12:35.699Z,16.51
2017-08-09T03:13:03.893Z,16.55
2017-08-09T03:13:32.146Z,16.48
2017-08-09T03:14:00.116Z,16.51
2017-08-09T03:14:28.398Z,16.49
2017-08-09T03:14:56.663Z,16.48
2017-08-09T03:15:24.989Z,16.4
2017-08-09T03:15:53.284Z,16.3
2017-08-09T03:16:21.441Z,16.45
2017-08-09T03:16:49.697Z,16.33
2017-08-09T03:17:18.025Z,16.34
2017-08-09T03:17:46.028Z,16.34
2017-08-09T03:18:14.309Z,16.3
2017-08-09T03:18:42.417Z,16.32
2017-08-09T03:19:10.533Z,16.27
2017-08-09T03:19:38.702Z,16.29
2017-08-09T03:20:06.881Z,16.25
2017-08-09T03:20:35.105Z,16.29
2017-08-09T03:21:03.289Z,16.13
2017-08-09T03:21:31.528Z,16.21
2017-08-09T03:21:59.731Z,16.25
2017-08-09T03:22:27.856Z,16.21
2017-08-09T03:22:56.007Z,16.26
2017-08-09T03:23:24.208Z,16.21
2017-08-09T03:23:52.373Z,16.16
2017-08-09T03:24:20.679Z,16.25
2017-08-09T03:24:48.848Z,16.26
2017-08-09T03:25:17.099Z,16.22
2017-08-09T03:25:45.301Z,16.21
2017-08-09T03:26:13.563Z,16.18
2017-08-09T03:26:41.791Z,16.14
2017-08-09T03:27:09.928Z,16.17
2017-08-09T03:27:38.027Z,16.17
2017-08-09T03:28:06.256Z,16.17
2017-08-09T03:28:34.525Z,16.18
2017-08-09T03:29:02.486Z,16.16
2017-08-09T03:29:30.776Z,16.14
2017-08-09T03:29:59.005Z,16.21
2017-08-09T03:30:27.312Z,16.1
2017-08-09T03:30:55.514Z,16.13
2017-08-09T03:31:23.800Z,16.11
2017-08-09T03:31:51.884Z,16.13
2017-08-09T03:32:20.127Z,16.17
2017-08-09T03:32:48.264Z,16.14
2017-08-09T03:33:16.413Z,16.13
2017-08-09T03:33:44.826Z,16.14
2017-08-09T03:34:13.015Z,16.21
2017-08-09T03:34:41.156Z,16.21
2017-08-09T03:35:09.193Z,16.27
2017-08-09T03:35:37.383Z,16.18
2017-08-09T03:36:05.584Z,16.25
2017-08-09T03:36:33.591Z,16.17
2017-08-09T03:37:01.887Z,16.25
2017-08-09T03:37:30.093Z,16.22
2017-08-09T03:37:58.175Z,16.18
2017-08-09T03:38:26.666Z,16.21
2017-08-09T03:38:54.943Z,16.22
2017-08-09T03:39:26.121Z,16.11
2017-08-09T03:39:54.385Z,16.13
2017-08-09T03:40:22.572Z,16.14
2017-08-09T03:40:50.774Z,16.11
2017-08-09T03:41:18.967Z,16.04
2017-08-09T03:41:47.207Z,16.04
2017-08-09T03:42:15.377Z,16
2017-08-09T03:42:43.520Z,16.02
2017-08-09T03:43:11.601Z,15.98
2017-08-09T03:43:39.873Z,15.96
2017-08-09T03:44:08.155Z,16.06
2017-08-09T03:44:36.357Z,15.99
2017-08-09T03:45:04.638Z,16.04
2017-08-09T03:45:32.885Z,15.96
2017-08-09T03:46:01.215Z,16.04
2017-08-09T03:46:29.478Z,16.04
2017-08-09T03:46:57.716Z,16
2017-08-09T03:47:25.982Z,16.04
2017-08-09T03:47:54.202Z,15.99
2017-08-09T03:48:22.467Z,16.07
2017-08-09T03:48:50.787Z,16
2017-08-09T03:49:18.961Z,15.98
2017-08-09T03:49:47.217Z,16
2017-08-09T03:50:15.459Z,16
2017-08-09T03:50:43.519Z,15.91
2017-08-09T03:51:11.837Z,15.92
2017-08-09T03:51:39.975Z,15.91
2017-08-09T03:52:08.076Z,15.93
2017-08-09T03:52:36.285Z,15.93
2017-08-09T03:53:04.429Z,15.89
2017-08-09T03:53:32.684Z,15.88
2017-08-09T03:54:00.963Z,15.84
2017-08-09T03:54:29.061Z,15.88
2017-08-09T03:54:57.191Z,15.84
2017-08-09T03:55:25.311Z,15.84
2017-08-09T03:55:53.581Z,15.91
2017-08-09T03:56:21.779Z,15.89
2017-08-09T03:56:50.074Z,15.84
2017-08-09T03:57:18.332Z,15.88
2017-08-09T03:57:46.544Z,15.77
2017-08-09T03:58:14.708Z,15.75
2017-08-09T03:58:43.078Z,15.73
2017-08-09T03:59:11.262Z,15.77
2017-08-09T03:59:39.430Z,15.83
2017-08-09T04:00:07.672Z,15.68
2017-08-09T04:00:35.804Z,15.68
2017-08-09T04:01:03.964Z,15.73
2017-08-09T04:01:32.113Z,15.58
2017-08-09T04:02:00.403Z,15.62
2017-08-09T04:02:28.697Z,15.65
2017-08-09T04:02:56.869Z,15.63
2017-08-09T04:03:25.029Z,15.58
2017-08-09T04:03:53.586Z,15.7
2017-08-09T04:04:21.805Z,15.68
2017-08-09T04:04:49.983Z,15.63
2017-08-09T04:05:18.236Z,15.67
2017-08-09T04:05:46.431Z,15.65
2017-08-09T04:06:14.693Z,15.68
2017-08-09T04:06:43.017Z,15.63
2017-08-09T04:07:11.109Z,15.67
2017-08-09T04:07:39.257Z,15.65
2017-08-09T04:08:07.508Z,15.7
2017-08-09T04:08:35.645Z,15.68
2017-08-09T04:09:03.962Z,15.71
2017-08-09T04:09:32.089Z,15.68
2017-08-09T04:10:00.090Z,15.77
2017-08-09T04:10:28.320Z,15.77
2017-08-09T04:10:56.560Z,15.73
2017-08-09T04:11:24.813Z,15.73
2017-08-09T04:11:52.975Z,15.74
2017-08-09T04:12:21.161Z,15.78
2017-08-09T04:12:49.322Z,15.73
2017-08-09T04:13:17.541Z,15.65
2017-08-09T04:13:45.624Z,15.68
2017-08-09T04:14:13.809Z,15.71
2017-08-09T04:14:41.890Z,15.68
2017-08-09T04:15:10.133Z,15.62
2017-08-09T04:15:38.366Z,15.65
2017-08-09T04:16:06.401Z,15.75
2017-08-09T04:16:34.672Z,15.67
2017-08-09T04:17:02.911Z,15.71
2017-08-09T04:17:31.071Z,15.63
2017-08-09T04:17:59.307Z,15.75
2017-08-09T04:18:27.465Z,15.67
2017-08-09T04:18:55.695Z,15.68
2017-08-09T04:19:24.045Z,15.73
2017-08-09T04:19:52.311Z,15.7
2017-08-09T04:20:20.625Z,15.67
2017-08-09T04:20:48.778Z,15.63
2017-08-09T04:21:16.894Z,15.65
2017-08-09T04:21:45.091Z,15.52
2017-08-09T04:22:13.396Z,15.59
2017-08-09T04:22:41.669Z,15.51
2017-08-09T04:23:09.831Z,15.49
2017-08-09T04:23:37.982Z,15.51
2017-08-09T04:24:06.274Z,15.52
2017-08-09T04:24:34.595Z,15.41
2017-08-09T04:25:02.772Z,15.37
2017-08-09T04:25:30.939Z,15.4
2017-08-09T04:25:59.195Z,15.38
2017-08-09T04:26:27.339Z,15.38
2017-08-09T04:26:55.570Z,15.47
2017-08-09T04:27:23.614Z,15.34
2017-08-09T04:27:51.852Z,15.4
2017-08-09T04:28:20.066Z,15.35
2017-08-09T04:28:48.251Z,15.37
2017-08-09T04:29:16.528Z,15.38
2017-08-09T04:29:44.578Z,15.4
2017-08-09T04:30:12.680Z,15.51
2017-08-09T04:30:40.974Z,15.37
2017-08-09T04:31:09.068Z,15.37
2017-08-09T04:31:37.277Z,15.4
2017-08-09T04:32:05.516Z,15.4
2017-08-09T04:32:33.579Z,15.43
2017-08-09T04:33:01.814Z,15.35
2017-08-09T04:33:29.955Z,15.4
2017-08-09T04:33:58.208Z,15.4
2017-08-09T04:34:26.630Z,15.43
2017-08-09T04:34:54.707Z,15.33
2017-08-09T04:35:22.889Z,15.4
2017-08-09T04:35:51.021Z,15.25
2017-08-09T04:36:19.180Z,15.37
2017-08-09T04:36:47.428Z,15.37
2017-08-09T04:37:15.569Z,15.37
2017-08-09T04:37:43.755Z,15.37
2017-08-09T04:38:11.829Z,15.38
2017-08-09T04:38:39.995Z,15.38
2017-08-09T04:39:08.158Z,15.33
2017-08-09T04:39:36.515Z,15.34
2017-08-09T04:40:04.672Z,15.45
2017-08-09T04:40:32.974Z,15.43
2017-08-09T04:41:01.277Z,15.43
2017-08-09T04:41:29.460Z,15.41
2017-08-09T04:41:57.711Z,15.38
2017-08-09T04:42:25.850Z,15.41
2017-08-09T04:42:54.110Z,15.44
2017-08-09T04:43:22.121Z,15.38
2017-08-09T04:43:50.308Z,15.34
2017-08-09T04:44:18.372Z,15.45
2017-08-09T04:44:46.645Z,15.56
2017-08-09T04:45:14.788Z,15.51
2017-08-09T04:45:42.954Z,15.44
2017-08-09T04:46:11.014Z,15.53
2017-08-09T04:46:39.148Z,15.56
2017-08-09T04:47:07.351Z,15.53
2017-08-09T04:47:35.661Z,15.55
2017-08-09T04:48:03.926Z,15.51
2017-08-09T04:48:32.176Z,15.56
2017-08-09T04:49:00.343Z,15.52
2017-08-09T04:49:28.831Z,15.51
2017-08-09T04:49:57.097Z,15.51
2017-08-09T04:50:25.354Z,15.47
2017-08-09T04:50:53.353Z,15.45
2017-08-09T04:51:21.606Z,15.49
2017-08-09T04:51:49.795Z,15.49
2017-08-09T04:52:18.029Z,15.51
2017-08-09T04:52:46.074Z,15.47
2017-08-09T04:53:14.360Z,15.47
2017-08-09T04:53:42.413Z,15.45
2017-08-09T04:54:10.701Z,15.45
2017-08-09T04:54:39.105Z,15.51
2017-08-09T04:55:07.347Z,15.55
2017-08-09T04:55:35.520Z,15.53
2017-08-09T04:56:03.693Z,15.55
2017-08-09T04:56:31.677Z,15.63
2017-08-09T04:56:59.843Z,15.63
2017-08-09T04:57:28.129Z,15.7
2017-08-09T04:57:56.463Z,15.63
2017-08-09T04:58:28.607Z,15.63
2017-08-09T04:59:00.680Z,15.73
2017-08-09T04:59:31.653Z,15.71
2017-08-09T05:00:03.827Z,15.74
2017-08-09T05:00:34.767Z,15.62
2017-08-09T05:01:04.487Z,15.67
2017-08-09T05:01:34.221Z,15.63
2017-08-09T05:02:08.243Z,15.74
2017-08-09T05:02:38.277Z,15.65
2017-08-09T05:03:08.501Z,15.63
2017-08-09T05:03:39.110Z,15.67
2017-08-09T05:04:10.284Z,15.63
2017-08-09T05:04:42.793Z,15.7
2017-08-09T05:05:11.656Z,15.63
2017-08-09T05:05:41.270Z,15.75
2017-08-09T05:06:11.935Z,15.68
2017-08-09T05:06:45.502Z,15.65
2017-08-09T05:07:16.327Z,15.67
2017-08-09T05:07:45.014Z,15.65
2017-08-09T05:08:15.741Z,15.75
2017-08-09T05:08:56.643Z,15.68
2017-08-09T05:09:25.387Z,15.71
2017-08-09T05:09:53.619Z,15.7
2017-08-09T05:10:21.847Z,15.65
2017-08-09T05:10:49.934Z,15.74
2017-08-09T05:11:18.181Z,15.73
2017-08-09T05:11:46.473Z,15.74
2017-08-09T05:12:14.769Z,15.67
2017-08-09T05:12:43.021Z,15.65
2017-08-09T05:13:11.193Z,15.63
2017-08-09T05:13:39.277Z,15.67
2017-08-09T05:14:07.221Z,15.59
2017-08-09T05:14:35.416Z,15.58
2017-08-09T05:15:03.712Z,15.58
2017-08-09T05:15:31.844Z,15.58
2017-08-09T05:16:00.112Z,15.62
2017-08-09T05:16:28.308Z,15.55
2017-08-09T05:16:56.591Z,15.59
2017-08-09T05:17:24.856Z,15.58
2017-08-09T05:17:53.039Z,15.58
2017-08-09T05:18:21.298Z,15.55
2017-08-09T05:18:49.560Z,15.58
2017-08-09T05:19:17.626Z,15.62
2017-08-09T05:19:45.733Z,15.67
2017-08-09T05:20:13.906Z,15.56
2017-08-09T05:20:42.143Z,15.58
2017-08-09T05:21:10.365Z,15.67
2017-08-09T05:21:38.356Z,15.7
2017-08-09T05:22:06.591Z,15.75
2017-08-09T05:22:34.750Z,15.81
2017-08-09T05:23:03.000Z,15.77
2017-08-09T05:23:31.223Z,15.86
2017-08-09T05:23:59.405Z,15.84
2017-08-09T05:24:27.626Z,15.84
2017-08-09T05:24:55.858Z,15.8
2017-08-09T05:25:24.221Z,15.86
2017-08-09T05:25:52.432Z,15.96
2017-08-09T05:26:20.598Z,15.99
2017-08-09T05:26:48.867Z,16
2017-08-09T05:27:17.174Z,16
2017-08-09T05:27:45.156Z,16.02
2017-08-09T05:28:13.333Z,16.13
2017-08-09T05:28:41.611Z,16.08
2017-08-09T05:29:09.890Z,16.08
2017-08-09T05:29:38.074Z,16.1
2017-08-09T05:30:06.353Z,16.04
2017-08-09T05:30:34.554Z,16.07
2017-08-09T05:31:02.757Z,16.13
2017-08-09T05:31:31.021Z,16.1
2017-08-09T05:31:59.268Z,16.1
2017-08-09T05:32:27.550Z,16.1
2017-08-09T05:32:55.814Z,16.02
2017-08-09T05:33:24.085Z,16.08
2017-08-09T05:33:52.365Z,15.99
2017-08-09T05:34:20.675Z,15.96
2017-08-09T05:34:48.862Z,15.99
2017-08-09T05:35:17.313Z,15.93
2017-08-09T05:35:45.540Z,15.96
2017-08-09T05:36:13.768Z,15.92
2017-08-09T05:36:42.041Z,15.95
2017-08-09T05:37:10.218Z,15.92
2017-08-09T05:37:38.523Z,15.88
2017-08-09T05:38:06.815Z,15.95
2017-08-09T05:38:35.082Z,15.86
2017-08-09T05:39:03.343Z,15.91
2017-08-09T05:39:31.630Z,15.95
2017-08-09T05:39:59.879Z,15.95
2017-08-09T05:40:28.165Z,15.93
2017-08-09T05:40:56.373Z,15.92
2017-08-09T05:41:24.613Z,16.04
2017-08-09T05:41:52.615Z,15.95
2017-08-09T05:42:20.896Z,15.96
2017-08-09T05:42:48.990Z,15.93
2017-08-09T05:43:17.249Z,15.92
2017-08-09T05:43:45.479Z,15.93
2017-08-09T05:44:13.547Z,15.92
2017-08-09T05:44:41.720Z,15.89
2017-08-09T05:45:10.002Z,15.91
2017-08-09T05:45:38.320Z,15.84
2017-08-09T05:46:06.317Z,15.91
2017-08-09T05:46:34.471Z,15.86
2017-08-09T05:47:02.682Z,15.81
2017-08-09T05:47:30.874Z,15.81
2017-08-09T05:47:59.051Z,15.86
2017-08-09T05:48:27.311Z,15.8
2017-08-09T05:48:55.546Z,15.81
2017-08-09T05:49:23.711Z,15.86
2017-08-09T05:49:51.889Z,15.81
2017-08-09T05:50:20.103Z,15.75
2017-08-09T05:50:48.314Z,15.74
2017-08-09T05:51:16.588Z,15.75
2017-08-09T05:51:44.615Z,15.8
2017-08-09T05:52:12.898Z,15.71
2017-08-09T05:52:41.075Z,15.7
2017-08-09T05:53:09.188Z,15.7
2017-08-09T05:53:37.280Z,15.73
2017-08-09T05:54:05.468Z,15.78
2017-08-09T05:54:33.757Z,15.7
2017-08-09T05:55:01.988Z,15.68
2017-08-09T05:55:30.233Z,15.67
2017-08-09T05:55:58.544Z,15.78
2017-08-09T05:56:26.676Z,15.68
2017-08-09T05:56:54.944Z,15.71
2017-08-09T05:57:23.187Z,15.68
2017-08-09T05:57:51.441Z,15.65
2017-08-09T05:58:19.558Z,15.68
2017-08-09T05:58:47.855Z,15.63
2017-08-09T05:59:15.944Z,15.65
2017-08-09T05:59:44.112Z,15.68
2017-08-09T06:00:12.290Z,15.71
2017-08-09T06:00:40.619Z,15.6
2017-08-09T06:01:08.808Z,15.68
2017-08-09T06:01:36.966Z,15.73
2017-08-09T06:02:05.220Z,15.65
2017-08-09T06:02:33.490Z,15.68
2017-08-09T06:03:01.612Z,15.74
2017-08-09T06:03:29.826Z,15.63
2017-08-09T06:03:58.086Z,15.73
2017-08-09T06:04:26.328Z,15.58
2017-08-09T06:04:54.600Z,15.68
2017-08-09T06:05:22.742Z,15.63
2017-08-09T06:05:51.122Z,15.63
2017-08-09T06:06:19.340Z,15.65